createdAt,value
2023-03-20T00:00:09.030Z,957.02
2023-03-20T00:00:20.077Z,957.03
2023-03-20T00:00:31.059Z,957.04
2023-03-20T00:00:41.822Z,957.01
2023-03-20T00:00:52.871Z,957.02
2023-03-20T00:01:03.835Z,957.02
2023-03-20T00:01:14.603Z,957.02
2023-03-20T00:01:25.651Z,957.03
2023-03-20T00:01:36.620Z,957.03
2023-03-20T00:01:47.389Z,957.02
2023-03-20T00:01:58.450Z,957.02
2023-03-20T00:02:09.403Z,957.02
2023-03-20T00:02:20.184Z,957.02
2023-03-20T00:02:31.231Z,957.02
2023-03-20T00:02:42.201Z,957.02
2023-03-20T00:02:52.973Z,957.03
2023-03-20T00:03:04.020Z,957.03
2023-03-20T00:03:14.992Z,957.04
2023-03-20T00:03:25.804Z,957.03
2023-03-20T00:03:36.809Z,957.01
2023-03-20T00:03:47.857Z,957.02
2023-03-20T00:03:58.614Z,957.03
2023-03-20T00:04:09.126Z,957.02
2023-03-20T00:04:20.154Z,957.02
2023-03-20T00:04:31.029Z,957.01
2023-03-20T00:04:42.141Z,957.02
2023-03-20T00:04:53.171Z,957.02
2023-03-20T00:05:04.025Z,957.02
2023-03-20T00:05:14.479Z,957.03
2023-03-20T00:05:25.454Z,957.02
2023-03-20T00:05:36.491Z,957.02
2023-03-20T00:05:47.079Z,957.02
2023-03-20T00:05:58.043Z,957.02
2023-03-20T00:06:08.808Z,957.03
2023-03-20T00:06:19.859Z,957.04
2023-03-20T00:06:30.833Z,957.04
2023-03-20T00:06:41.604Z,957.05
2023-03-20T00:06:52.648Z,957.05
2023-03-20T00:07:03.614Z,957.04
2023-03-20T00:07:14.384Z,957.04
2023-03-20T00:07:25.778Z,957.06
2023-03-20T00:07:36.214Z,957.07
2023-03-20T00:07:47.004Z,957.06
2023-03-20T00:07:58.039Z,957.06
2023-03-20T00:08:09.006Z,957.06
2023-03-20T00:08:19.772Z,957.06
2023-03-20T00:08:30.826Z,957.06
2023-03-20T00:08:41.791Z,957.06
2023-03-20T00:08:52.948Z,957.06
2023-03-20T00:09:07.248Z,957.06
2023-03-20T00:09:14.800Z,957.05
2023-03-20T00:09:25.598Z,957.06
2023-03-20T00:09:36.624Z,957.06
2023-03-20T00:09:47.583Z,957.08
2023-03-20T00:09:58.351Z,957.08
2023-03-20T00:10:09.394Z,957.07
2023-03-20T00:10:20.371Z,957.07
2023-03-20T00:10:31.226Z,957.07
2023-03-20T00:10:42.272Z,957.07
2023-03-20T00:10:53.236Z,957.08
2023-03-20T00:11:04.012Z,957.07
2023-03-20T00:11:15.084Z,957.07
2023-03-20T00:11:26.065Z,957.08
2023-03-20T00:11:36.852Z,957.08
2023-03-20T00:11:47.880Z,957.08
2023-03-20T00:11:58.848Z,957.08
2023-03-20T00:12:09.614Z,957.08
2023-03-20T00:12:20.662Z,957.08
2023-03-20T00:12:31.646Z,957.08
2023-03-20T00:12:42.415Z,957.08
2023-03-20T00:12:53.462Z,957.08
2023-03-20T00:13:04.444Z,957.08
2023-03-20T00:13:15.203Z,957.07
2023-03-20T00:13:26.254Z,957.06
2023-03-20T00:13:37.216Z,957.07
2023-03-20T00:13:47.983Z,957.06
2023-03-20T00:13:59.033Z,957.06
2023-03-20T00:14:10.013Z,957.05
2023-03-20T00:14:20.778Z,957.06
2023-03-20T00:14:31.828Z,957.07
2023-03-20T00:14:42.809Z,957.08
2023-03-20T00:14:53.572Z,957.09
2023-03-20T00:15:04.610Z,957.08
2023-03-20T00:15:15.580Z,957.08
2023-03-20T00:15:26.351Z,957.07
2023-03-20T00:15:37.545Z,957.08
2023-03-20T00:15:48.047Z,957.08
2023-03-20T00:15:58.817Z,957.08
2023-03-20T00:16:09.859Z,957.08
2023-03-20T00:16:20.848Z,957.09
2023-03-20T00:16:31.691Z,957.09
2023-03-20T00:16:42.171Z,957.08
2023-03-20T00:16:53.172Z,957.08
2023-03-20T00:17:03.904Z,957.07
2023-03-20T00:17:14.953Z,957.07
2023-03-20T00:17:25.929Z,957.06
2023-03-20T00:17:36.703Z,957.06
2023-03-20T00:17:47.745Z,957.05
2023-03-20T00:17:58.716Z,957.04
2023-03-20T00:18:09.491Z,957.05
2023-03-20T00:18:20.540Z,957.05
2023-03-20T00:18:31.507Z,957.04
2023-03-20T00:18:42.283Z,957.05
2023-03-20T00:18:53.326Z,957.06
2023-03-20T00:19:04.312Z,957.06
2023-03-20T00:19:15.066Z,957.07
2023-03-20T00:19:26.118Z,957.07
2023-03-20T00:19:37.084Z,957.07
2023-03-20T00:19:47.855Z,957.07
2023-03-20T00:19:58.896Z,957.07
2023-03-20T00:20:09.864Z,957.05
2023-03-20T00:20:20.636Z,957.06
2023-03-20T00:20:31.832Z,957.07
2023-03-20T00:20:42.730Z,957.08
2023-03-20T00:20:53.493Z,957.08
2023-03-20T00:21:04.540Z,957.06
2023-03-20T00:21:15.509Z,957.07
2023-03-20T00:21:26.283Z,957.06
2023-03-20T00:21:37.324Z,957.06
2023-03-20T00:21:48.294Z,957.05
2023-03-20T00:21:59.061Z,957.05
2023-03-20T00:22:10.109Z,957.06
2023-03-20T00:22:21.080Z,957.06
2023-03-20T00:22:31.856Z,957.06
2023-03-20T00:22:42.914Z,957.06
2023-03-20T00:22:53.904Z,957.07
2023-03-20T00:23:04.698Z,957.07
2023-03-20T00:23:15.754Z,957.06
2023-03-20T00:23:26.724Z,957.06
2023-03-20T00:23:37.487Z,957.05
2023-03-20T00:23:48.543Z,957.05
2023-03-20T00:23:59.506Z,957.06
2023-03-20T00:24:10.273Z,957.08
2023-03-20T00:24:21.341Z,957.08
2023-03-20T00:24:32.299Z,957.07
2023-03-20T00:24:43.092Z,957.06
2023-03-20T00:24:54.126Z,957.05
2023-03-20T00:25:05.094Z,957.05
2023-03-20T00:25:15.870Z,957.06
2023-03-20T00:25:26.921Z,957.06
2023-03-20T00:25:37.905Z,957.06
2023-03-20T00:25:48.662Z,957.06
2023-03-20T00:25:59.713Z,957.07
2023-03-20T00:26:10.701Z,957.09
2023-03-20T00:26:21.465Z,957.09
2023-03-20T00:26:32.515Z,957.08
2023-03-20T00:26:43.484Z,957.08
2023-03-20T00:26:54.287Z,957.07
2023-03-20T00:27:05.298Z,957.07
2023-03-20T00:27:16.262Z,957.07
2023-03-20T00:27:27.039Z,957.07
2023-03-20T00:27:38.088Z,957.06
2023-03-20T00:27:49.058Z,957.07
2023-03-20T00:27:59.840Z,957.07
2023-03-20T00:28:10.877Z,957.07
2023-03-20T00:28:21.858Z,957.07
2023-03-20T00:28:32.647Z,957.08
2023-03-20T00:28:43.676Z,957.08
2023-03-20T00:28:54.647Z,957.08
2023-03-20T00:29:05.428Z,957.08
2023-03-20T00:29:16.468Z,957.08
2023-03-20T00:29:27.435Z,957.07
2023-03-20T00:29:38.207Z,957.07
2023-03-20T00:29:49.248Z,957.06
2023-03-20T00:30:00.215Z,957.07
2023-03-20T00:30:10.987Z,957.08
2023-03-20T00:30:22.029Z,957.09
2023-03-20T00:30:33.015Z,957.10
2023-03-20T00:30:43.780Z,957.10
2023-03-20T00:30:54.825Z,957.09
2023-03-20T00:31:05.807Z,957.08
2023-03-20T00:31:16.584Z,957.08
2023-03-20T00:31:27.645Z,957.07
2023-03-20T00:31:38.677Z,957.07
2023-03-20T00:31:49.542Z,957.08
2023-03-20T00:32:00.034Z,957.08
2023-03-20T00:32:11.004Z,957.09
2023-03-20T00:32:21.778Z,957.08
2023-03-20T00:32:32.965Z,957.08
2023-03-20T00:32:43.441Z,957.08
2023-03-20T00:32:54.328Z,957.08
2023-03-20T00:33:04.860Z,957.08
2023-03-20T00:33:15.835Z,957.08
2023-03-20T00:33:26.569Z,957.09
2023-03-20T00:33:37.610Z,957.09
2023-03-20T00:33:48.590Z,957.08
2023-03-20T00:33:59.368Z,957.08
2023-03-20T00:34:10.420Z,957.07
2023-03-20T00:34:21.380Z,957.06
2023-03-20T00:34:32.150Z,957.05
2023-03-20T00:34:43.202Z,957.04
2023-03-20T00:34:54.171Z,957.05
2023-03-20T00:35:04.968Z,957.05
2023-03-20T00:35:16.016Z,957.07
2023-03-20T00:35:26.999Z,957.06
2023-03-20T00:35:38.177Z,957.07
2023-03-20T00:35:48.794Z,957.06
2023-03-20T00:35:59.763Z,957.07
2023-03-20T00:36:10.523Z,957.08
2023-03-20T00:36:21.545Z,957.08
2023-03-20T00:36:32.515Z,957.08
2023-03-20T00:36:43.287Z,957.08
2023-03-20T00:36:54.356Z,957.07
2023-03-20T00:37:05.314Z,957.07
2023-03-20T00:37:16.085Z,957.07
2023-03-20T00:37:27.116Z,957.06
2023-03-20T00:37:38.087Z,957.06
2023-03-20T00:37:48.856Z,957.05
2023-03-20T00:37:59.930Z,957.05
2023-03-20T00:38:10.885Z,957.06
2023-03-20T00:38:21.658Z,957.07
2023-03-20T00:38:32.712Z,957.06
2023-03-20T00:38:43.687Z,957.06
2023-03-20T00:38:54.460Z,957.06
2023-03-20T00:39:05.536Z,957.06
2023-03-20T00:39:16.467Z,957.07
2023-03-20T00:39:27.233Z,957.06
2023-03-20T00:39:38.283Z,957.07
2023-03-20T00:39:49.248Z,957.06
2023-03-20T00:40:00.046Z,957.06
2023-03-20T00:40:11.087Z,957.05
2023-03-20T00:40:22.053Z,957.05
2023-03-20T00:40:32.829Z,957.05
2023-03-20T00:40:43.878Z,957.04
2023-03-20T00:40:54.841Z,957.05
2023-03-20T00:41:05.610Z,957.05
2023-03-20T00:41:16.664Z,957.04
2023-03-20T00:41:27.628Z,957.04
2023-03-20T00:41:38.402Z,957.03
2023-03-20T00:41:49.457Z,957.03
2023-03-20T00:42:00.418Z,957.03
2023-03-20T00:42:11.191Z,957.03
2023-03-20T00:42:22.295Z,957.02
2023-03-20T00:42:33.242Z,957.02
2023-03-20T00:42:44.010Z,957.02
2023-03-20T00:42:55.067Z,957.02
2023-03-20T00:43:06.051Z,957.02
2023-03-20T00:43:16.814Z,957.01
2023-03-20T00:43:27.864Z,957.02
2023-03-20T00:43:38.846Z,957.02
2023-03-20T00:43:49.618Z,957.02
2023-03-20T00:44:00.660Z,957.02
2023-03-20T00:44:11.629Z,957.03
2023-03-20T00:44:22.413Z,957.03
2023-03-20T00:44:33.443Z,957.03
2023-03-20T00:44:44.443Z,957.02
2023-03-20T00:44:55.187Z,957.02
2023-03-20T00:45:06.237Z,957.00
2023-03-20T00:45:17.208Z,957.01
2023-03-20T00:45:27.974Z,957.01
2023-03-20T00:45:39.016Z,957.02
2023-03-20T00:45:49.984Z,957.02
2023-03-20T00:46:00.751Z,957.00
2023-03-20T00:46:11.798Z,957.01
2023-03-20T00:46:22.858Z,957.01
2023-03-20T00:46:33.601Z,957.00
2023-03-20T00:46:44.673Z,957.00
2023-03-20T00:46:55.624Z,957.01
2023-03-20T00:47:06.481Z,957.01
2023-03-20T00:47:16.972Z,957.01
2023-03-20T00:47:27.924Z,957.01
2023-03-20T00:47:38.703Z,957.02
2023-03-20T00:47:49.747Z,957.02
2023-03-20T00:48:00.736Z,957.02
2023-03-20T00:48:11.504Z,957.02
2023-03-20T00:48:22.567Z,957.02
2023-03-20T00:48:33.535Z,957.02
2023-03-20T00:48:44.321Z,957.01
2023-03-20T00:48:55.369Z,957.02
2023-03-20T00:49:06.387Z,957.01
2023-03-20T00:49:17.148Z,957.01
2023-03-20T00:49:28.163Z,957.01
2023-03-20T00:49:39.134Z,957.01
2023-03-20T00:49:49.942Z,957.00
2023-03-20T00:50:00.977Z,957.00
2023-03-20T00:50:11.945Z,957.00
2023-03-20T00:50:22.716Z,957.01
2023-03-20T00:50:33.784Z,957.01
2023-03-20T00:50:44.735Z,957.01
2023-03-20T00:50:55.510Z,957.01
2023-03-20T00:51:06.579Z,957.01
2023-03-20T00:51:17.558Z,957.01
2023-03-20T00:51:28.326Z,957.00
2023-03-20T00:51:39.373Z,957.00
2023-03-20T00:51:50.345Z,956.99
2023-03-20T00:52:01.115Z,957.01
2023-03-20T00:52:12.154Z,957.01
2023-03-20T00:52:23.118Z,957.01
2023-03-20T00:52:33.905Z,957.00
2023-03-20T00:52:44.954Z,957.00
2023-03-20T00:52:55.927Z,957.01
2023-03-20T00:53:06.720Z,957.00
2023-03-20T00:53:17.764Z,957.00
2023-03-20T00:53:28.740Z,957.01
2023-03-20T00:53:39.504Z,957.01
2023-03-20T00:53:50.573Z,957.01
2023-03-20T00:54:01.534Z,957.01
2023-03-20T00:54:12.298Z,957.01
2023-03-20T00:54:23.345Z,957.01
2023-03-20T00:54:34.311Z,957.02
2023-03-20T00:54:45.079Z,957.03
2023-03-20T00:54:56.151Z,957.02
2023-03-20T00:55:07.104Z,957.02
2023-03-20T00:55:17.866Z,957.02
2023-03-20T00:55:28.919Z,957.01
2023-03-20T00:55:39.875Z,957.02
2023-03-20T00:55:50.647Z,957.01
2023-03-20T00:56:01.701Z,957.00
2023-03-20T00:56:12.656Z,957.01
2023-03-20T00:56:23.427Z,957.00
2023-03-20T00:56:34.532Z,957.01
2023-03-20T00:56:45.493Z,957.01
2023-03-20T00:56:56.268Z,957.01
2023-03-20T00:57:07.314Z,957.00
2023-03-20T00:57:18.275Z,956.99
2023-03-20T00:57:29.055Z,956.99
2023-03-20T00:57:40.117Z,956.99
2023-03-20T00:57:51.084Z,957.01
2023-03-20T00:58:01.842Z,957.00
2023-03-20T00:58:12.886Z,957.01
2023-03-20T00:58:23.880Z,957.01
2023-03-20T00:58:34.648Z,956.99
2023-03-20T00:58:45.697Z,957.00
2023-03-20T00:58:56.678Z,956.99
2023-03-20T00:59:07.450Z,956.99
2023-03-20T00:59:18.503Z,957.00
2023-03-20T00:59:29.473Z,957.01
2023-03-20T00:59:40.242Z,957.01
2023-03-20T00:59:51.285Z,957.00
2023-03-20T01:00:02.293Z,957.01
2023-03-20T01:00:13.026Z,957.01
2023-03-20T01:00:24.073Z,957.01
2023-03-20T01:00:35.056Z,957.00
2023-03-20T01:00:45.902Z,957.00
2023-03-20T01:00:56.415Z,957.00
2023-03-20T01:01:07.462Z,957.00
2023-03-20T01:01:18.303Z,957.00
2023-03-20T01:01:28.760Z,957.00
2023-03-20T01:01:39.807Z,957.01
2023-03-20T01:01:50.594Z,957.00
2023-03-20T01:02:01.662Z,957.00
2023-03-20T01:02:12.609Z,957.00
2023-03-20T01:02:23.421Z,957.00
2023-03-20T01:02:34.453Z,957.00
2023-03-20T01:02:45.384Z,957.00
2023-03-20T01:02:56.156Z,956.99
2023-03-20T01:03:07.197Z,957.00
2023-03-20T01:03:18.176Z,956.99
2023-03-20T01:03:28.952Z,956.99
2023-03-20T01:03:40.816Z,957.00
2023-03-20T01:03:50.703Z,957.00
2023-03-20T01:04:01.479Z,957.01
2023-03-20T01:04:12.518Z,957.01
2023-03-20T01:04:23.490Z,957.01
2023-03-20T01:04:34.253Z,957.00
2023-03-20T01:04:45.303Z,957.00
2023-03-20T01:04:56.269Z,957.01
2023-03-20T01:05:07.032Z,957.01
2023-03-20T01:05:18.079Z,957.00
2023-03-20T01:05:29.085Z,957.01
2023-03-20T01:05:39.818Z,957.00
2023-03-20T01:05:50.868Z,957.00
2023-03-20T01:06:01.840Z,957.01
2023-03-20T01:06:12.629Z,957.02
2023-03-20T01:06:23.674Z,957.01
2023-03-20T01:06:34.649Z,957.01
2023-03-20T01:06:45.412Z,957.00
2023-03-20T01:06:56.458Z,957.00
2023-03-20T01:07:07.455Z,957.00
2023-03-20T01:07:18.228Z,957.01
2023-03-20T01:07:29.270Z,956.99
2023-03-20T01:07:40.235Z,956.98
2023-03-20T01:07:51.009Z,956.99
2023-03-20T01:08:02.056Z,956.99
2023-03-20T01:08:13.036Z,956.99
2023-03-20T01:08:23.793Z,957.00
2023-03-20T01:08:34.853Z,957.01
2023-03-20T01:08:45.826Z,957.00
2023-03-20T01:08:56.601Z,957.01
2023-03-20T01:09:07.665Z,957.02
2023-03-20T01:09:18.631Z,957.03
2023-03-20T01:09:29.405Z,957.03
2023-03-20T01:09:40.448Z,957.03
2023-03-20T01:09:51.414Z,957.02
2023-03-20T01:10:02.182Z,957.01
2023-03-20T01:10:13.244Z,957.00
2023-03-20T01:10:24.210Z,957.01
2023-03-20T01:10:35.004Z,957.01
2023-03-20T01:10:46.033Z,957.01
2023-03-20T01:10:57.002Z,957.02
2023-03-20T01:11:07.779Z,957.02
2023-03-20T01:11:18.827Z,957.04
2023-03-20T01:11:29.805Z,957.04
2023-03-20T01:11:40.595Z,957.02
2023-03-20T01:11:53.992Z,957.01
2023-03-20T01:12:02.324Z,957.02
2023-03-20T01:12:13.087Z,957.02
2023-03-20T01:12:24.165Z,957.02
2023-03-20T01:12:35.104Z,957.03
2023-03-20T01:12:45.874Z,957.02
2023-03-20T01:12:56.925Z,957.02
2023-03-20T01:13:07.893Z,957.03
2023-03-20T01:13:18.661Z,957.03
2023-03-20T01:13:29.721Z,957.02
2023-03-20T01:13:40.708Z,957.02
2023-03-20T01:13:51.473Z,957.03
2023-03-20T01:14:02.526Z,957.04
2023-03-20T01:14:13.531Z,957.04
2023-03-20T01:14:24.307Z,957.03
2023-03-20T01:14:35.359Z,957.03
2023-03-20T01:14:46.322Z,957.05
2023-03-20T01:14:57.097Z,957.03
2023-03-20T01:15:08.140Z,957.02
2023-03-20T01:15:19.106Z,957.02
2023-03-20T01:15:29.870Z,957.01
2023-03-20T01:15:40.925Z,957.02
2023-03-20T01:15:51.883Z,957.03
2023-03-20T01:16:02.759Z,957.03
2023-03-20T01:16:13.299Z,957.04
2023-03-20T01:16:24.316Z,957.03
2023-03-20T01:16:35.177Z,957.03
2023-03-20T01:16:45.806Z,957.04
2023-03-20T01:16:56.315Z,957.03
2023-03-20T01:17:07.044Z,957.03
2023-03-20T01:17:18.096Z,957.03
2023-03-20T01:17:29.086Z,957.04
2023-03-20T01:17:39.837Z,957.04
2023-03-20T01:17:50.886Z,957.04
2023-03-20T01:18:01.848Z,957.03
2023-03-20T01:18:12.633Z,957.03
2023-03-20T01:18:23.680Z,957.03
2023-03-20T01:18:34.650Z,957.04
2023-03-20T01:18:45.436Z,957.03
2023-03-20T01:18:56.478Z,957.03
2023-03-20T01:19:07.454Z,957.02
2023-03-20T01:19:18.242Z,957.03
2023-03-20T01:19:29.321Z,957.03
2023-03-20T01:19:40.261Z,957.03
2023-03-20T01:19:51.042Z,957.02
2023-03-20T01:20:02.077Z,957.02
2023-03-20T01:20:13.050Z,957.03
2023-03-20T01:20:23.814Z,957.01
2023-03-20T01:20:34.865Z,957.01
2023-03-20T01:20:45.838Z,957.02
2023-03-20T01:20:56.597Z,957.02
2023-03-20T01:21:07.641Z,957.03
2023-03-20T01:21:18.619Z,957.02
2023-03-20T01:21:29.381Z,957.01
2023-03-20T01:21:40.432Z,957.02
2023-03-20T01:21:51.413Z,957.03
2023-03-20T01:22:02.173Z,957.04
2023-03-20T01:22:13.219Z,957.03
2023-03-20T01:22:24.230Z,957.03
2023-03-20T01:22:34.972Z,957.04
2023-03-20T01:22:46.018Z,957.03
2023-03-20T01:22:56.989Z,957.03
2023-03-20T01:23:07.753Z,957.04
2023-03-20T01:23:18.821Z,957.05
2023-03-20T01:23:29.784Z,957.06
2023-03-20T01:23:40.567Z,957.05
2023-03-20T01:23:51.623Z,957.03
2023-03-20T01:24:02.610Z,957.03
2023-03-20T01:24:13.369Z,957.02
2023-03-20T01:24:24.437Z,957.04
2023-03-20T01:24:35.405Z,957.04
2023-03-20T01:24:46.176Z,957.05
2023-03-20T01:24:57.225Z,957.06
2023-03-20T01:25:08.197Z,957.05
2023-03-20T01:25:18.960Z,957.05
2023-03-20T01:25:30.016Z,957.05
2023-03-20T01:25:40.986Z,957.06
2023-03-20T01:25:51.771Z,957.05
2023-03-20T01:26:02.807Z,957.05
2023-03-20T01:26:13.781Z,957.04
2023-03-20T01:26:24.548Z,957.04
2023-03-20T01:26:35.594Z,957.03
2023-03-20T01:26:46.593Z,957.05
2023-03-20T01:26:57.348Z,957.05
2023-03-20T01:27:08.398Z,957.06
2023-03-20T01:27:19.365Z,957.04
2023-03-20T01:27:30.133Z,957.05
2023-03-20T01:27:41.179Z,957.06
2023-03-20T01:27:52.158Z,957.06
2023-03-20T01:28:02.921Z,957.06
2023-03-20T01:28:13.971Z,957.05
2023-03-20T01:28:24.937Z,957.06
2023-03-20T01:28:35.711Z,957.04
2023-03-20T01:28:46.763Z,957.04
2023-03-20T01:28:57.749Z,957.04
2023-03-20T01:29:08.508Z,957.03
2023-03-20T01:29:19.570Z,957.04
2023-03-20T01:29:30.539Z,957.04
2023-03-20T01:29:41.315Z,957.04
2023-03-20T01:29:52.355Z,957.05
2023-03-20T01:30:03.327Z,957.06
2023-03-20T01:30:14.093Z,957.07
2023-03-20T01:30:25.140Z,957.07
2023-03-20T01:30:36.101Z,957.07
2023-03-20T01:30:46.875Z,957.08
2023-03-20T01:30:57.919Z,957.08
2023-03-20T01:31:08.886Z,957.08
2023-03-20T01:31:19.707Z,957.07
2023-03-20T01:31:30.826Z,957.06
2023-03-20T01:31:41.904Z,957.07
2023-03-20T01:31:52.732Z,957.08
2023-03-20T01:32:03.253Z,957.08
2023-03-20T01:32:14.213Z,957.08
2023-03-20T01:32:24.973Z,957.07
2023-03-20T01:32:36.052Z,957.07
2023-03-20T01:32:47.026Z,957.08
2023-03-20T01:32:57.846Z,957.08
2023-03-20T01:33:08.850Z,957.08
2023-03-20T01:33:19.797Z,957.09
2023-03-20T01:33:30.588Z,957.09
2023-03-20T01:33:41.629Z,957.09
2023-03-20T01:33:52.607Z,957.10
2023-03-20T01:34:03.400Z,957.10
2023-03-20T01:34:14.441Z,957.09
2023-03-20T01:34:25.440Z,957.09
2023-03-20T01:34:36.185Z,957.10
2023-03-20T01:34:47.228Z,957.11
2023-03-20T01:34:58.198Z,957.10
2023-03-20T01:35:08.966Z,957.08
2023-03-20T01:35:20.013Z,957.09
2023-03-20T01:35:30.980Z,957.09
2023-03-20T01:35:41.804Z,957.08
2023-03-20T01:35:52.834Z,957.07
2023-03-20T01:36:03.791Z,957.07
2023-03-20T01:36:14.633Z,957.08
2023-03-20T01:36:25.116Z,957.08
2023-03-20T01:36:36.078Z,957.08
2023-03-20T01:36:46.860Z,957.09
2023-03-20T01:36:57.907Z,957.10
2023-03-20T01:37:08.880Z,957.09
2023-03-20T01:37:19.657Z,957.09
2023-03-20T01:37:30.695Z,957.09
2023-03-20T01:37:41.669Z,957.09
2023-03-20T01:37:52.444Z,957.09
2023-03-20T01:38:03.505Z,957.09
2023-03-20T01:38:14.469Z,957.09
2023-03-20T01:38:25.256Z,957.09
2023-03-20T01:38:36.289Z,957.08
2023-03-20T01:38:47.244Z,957.09
2023-03-20T01:38:58.027Z,957.09
2023-03-20T01:39:09.064Z,957.08
2023-03-20T01:39:20.029Z,957.08
2023-03-20T01:39:30.798Z,957.09
2023-03-20T01:39:41.849Z,957.09
2023-03-20T01:39:52.809Z,957.10
2023-03-20T01:40:03.584Z,957.10
2023-03-20T01:40:14.627Z,957.09
2023-03-20T01:40:25.599Z,957.09
2023-03-20T01:40:36.358Z,957.09
2023-03-20T01:40:47.424Z,957.10
2023-03-20T01:40:58.386Z,957.09
2023-03-20T01:41:09.147Z,957.09
2023-03-20T01:41:20.201Z,957.09
2023-03-20T01:41:31.171Z,957.10
2023-03-20T01:41:41.946Z,957.09
2023-03-20T01:41:53.028Z,957.08
2023-03-20T01:42:03.973Z,957.09
2023-03-20T01:42:14.742Z,957.10
2023-03-20T01:42:25.807Z,957.10
2023-03-20T01:42:36.763Z,957.10
2023-03-20T01:42:47.533Z,957.09
2023-03-20T01:42:58.585Z,957.09
2023-03-20T01:43:09.560Z,957.10
2023-03-20T01:43:20.333Z,957.10
2023-03-20T01:43:31.381Z,957.11
2023-03-20T01:43:42.346Z,957.12
2023-03-20T01:43:53.115Z,957.12
2023-03-20T01:44:04.167Z,957.11
2023-03-20T01:44:15.154Z,957.10
2023-03-20T01:44:25.927Z,957.10
2023-03-20T01:44:36.960Z,957.10
2023-03-20T01:44:47.924Z,957.09
2023-03-20T01:44:58.696Z,957.11
2023-03-20T01:45:09.741Z,957.11
2023-03-20T01:45:20.706Z,957.11
2023-03-20T01:45:31.491Z,957.11
2023-03-20T01:45:42.610Z,957.10
2023-03-20T01:45:53.673Z,957.10
2023-03-20T01:46:04.435Z,957.10
2023-03-20T01:46:15.555Z,957.11
2023-03-20T01:46:26.623Z,957.11
2023-03-20T01:46:37.435Z,957.11
2023-03-20T01:46:47.941Z,957.12
2023-03-20T01:46:58.925Z,957.12
2023-03-20T01:47:09.692Z,957.11
2023-03-20T01:47:20.742Z,957.12
2023-03-20T01:47:31.705Z,957.10
2023-03-20T01:47:42.474Z,957.09
2023-03-20T01:47:53.523Z,957.09
2023-03-20T01:48:04.487Z,957.09
2023-03-20T01:48:15.259Z,957.09
2023-03-20T01:48:26.310Z,957.10
2023-03-20T01:48:37.294Z,957.09
2023-03-20T01:48:48.041Z,957.09
2023-03-20T01:48:59.088Z,957.10
2023-03-20T01:49:10.053Z,957.10
2023-03-20T01:49:20.827Z,957.10
2023-03-20T01:49:31.876Z,957.11
2023-03-20T01:49:42.845Z,957.10
2023-03-20T01:49:53.612Z,957.10
2023-03-20T01:50:04.657Z,957.09
2023-03-20T01:50:15.628Z,957.10
2023-03-20T01:50:26.472Z,957.09
2023-03-20T01:50:37.000Z,957.10
2023-03-20T01:50:47.948Z,957.10
2023-03-20T01:50:58.720Z,957.10
2023-03-20T01:51:09.765Z,957.09
2023-03-20T01:51:20.740Z,957.09
2023-03-20T01:51:31.508Z,957.10
2023-03-20T01:51:42.564Z,957.10
2023-03-20T01:51:53.535Z,957.09
2023-03-20T01:52:04.299Z,957.10
2023-03-20T01:52:15.371Z,957.11
2023-03-20T01:52:26.329Z,957.10
2023-03-20T01:52:37.094Z,957.09
2023-03-20T01:52:48.147Z,957.09
2023-03-20T01:52:59.110Z,957.10
2023-03-20T01:53:09.896Z,957.10
2023-03-20T01:53:20.950Z,957.11
2023-03-20T01:53:31.931Z,957.10
2023-03-20T01:53:42.676Z,957.10
2023-03-20T01:53:53.724Z,957.10
2023-03-20T01:54:04.693Z,957.10
2023-03-20T01:54:15.464Z,957.09
2023-03-20T01:54:26.510Z,957.09
2023-03-20T01:54:37.486Z,957.10
2023-03-20T01:54:48.253Z,957.09
2023-03-20T01:54:59.302Z,957.10
2023-03-20T01:55:10.264Z,957.09
2023-03-20T01:55:21.041Z,957.09
2023-03-20T01:55:32.081Z,957.11
2023-03-20T01:55:43.050Z,957.10
2023-03-20T01:55:53.817Z,957.10
2023-03-20T01:56:04.878Z,957.11
2023-03-20T01:56:15.844Z,957.11
2023-03-20T01:56:26.606Z,957.10
2023-03-20T01:56:37.653Z,957.10
2023-03-20T01:56:48.640Z,957.09
2023-03-20T01:56:59.415Z,957.09
2023-03-20T01:57:10.459Z,957.08
2023-03-20T01:57:21.441Z,957.08
2023-03-20T01:57:32.208Z,957.08
2023-03-20T01:57:43.284Z,957.08
2023-03-20T01:57:54.223Z,957.09
2023-03-20T01:58:05.454Z,957.08
2023-03-20T01:58:15.964Z,957.08
2023-03-20T01:58:26.929Z,957.08
2023-03-20T01:58:37.704Z,957.08
2023-03-20T01:58:48.746Z,957.08
2023-03-20T01:58:59.702Z,957.06
2023-03-20T01:59:10.478Z,957.06
2023-03-20T01:59:21.529Z,957.07
2023-03-20T01:59:32.496Z,957.07
2023-03-20T01:59:43.263Z,957.08
2023-03-20T01:59:54.314Z,957.07
2023-03-20T02:00:05.288Z,957.07
2023-03-20T02:00:16.054Z,957.07
2023-03-20T02:00:27.108Z,957.07
2023-03-20T02:00:38.085Z,957.05
2023-03-20T02:00:48.897Z,957.06
2023-03-20T02:00:59.506Z,957.06
2023-03-20T02:01:09.956Z,957.07
2023-03-20T02:01:20.827Z,957.07
2023-03-20T02:01:31.397Z,957.07
2023-03-20T02:01:42.353Z,957.07
2023-03-20T02:01:53.140Z,957.07
2023-03-20T02:02:04.186Z,957.06
2023-03-20T02:02:15.156Z,957.06
2023-03-20T02:02:25.940Z,957.06
2023-03-20T02:02:36.984Z,957.07
2023-03-20T02:02:47.965Z,957.06
2023-03-20T02:02:58.738Z,957.06
2023-03-20T02:03:09.792Z,957.07
2023-03-20T02:03:20.767Z,957.06
2023-03-20T02:03:31.548Z,957.05
2023-03-20T02:03:42.589Z,957.05
2023-03-20T02:03:53.562Z,957.05
2023-03-20T02:04:04.349Z,957.04
2023-03-20T02:04:15.408Z,957.04
2023-03-20T02:04:26.376Z,957.05
2023-03-20T02:04:37.156Z,957.05
2023-03-20T02:04:48.210Z,957.04
2023-03-20T02:04:59.230Z,957.03
2023-03-20T02:05:10.112Z,957.04
2023-03-20T02:05:20.576Z,957.04
2023-03-20T02:05:31.553Z,957.04
2023-03-20T02:05:42.322Z,957.04
2023-03-20T02:05:53.368Z,957.04
2023-03-20T02:06:04.338Z,957.04
2023-03-20T02:06:15.104Z,957.04
2023-03-20T02:06:26.156Z,957.04
2023-03-20T02:06:37.132Z,957.04
2023-03-20T02:06:47.910Z,957.04
2023-03-20T02:06:59.039Z,957.04
2023-03-20T02:07:09.939Z,957.04
2023-03-20T02:07:20.718Z,957.04
2023-03-20T02:07:31.787Z,957.05
2023-03-20T02:07:42.750Z,957.05
2023-03-20T02:07:53.535Z,957.04
2023-03-20T02:08:04.593Z,957.04
2023-03-20T02:08:15.562Z,957.04
2023-03-20T02:08:26.332Z,957.04
2023-03-20T02:08:37.398Z,957.04
2023-03-20T02:08:48.352Z,957.03
2023-03-20T02:08:59.130Z,957.03
2023-03-20T02:09:10.164Z,957.03
2023-03-20T02:09:21.137Z,957.03
2023-03-20T02:09:31.904Z,957.03
2023-03-20T02:09:42.944Z,957.02
2023-03-20T02:09:53.918Z,957.03
2023-03-20T02:10:04.682Z,957.04
2023-03-20T02:10:15.730Z,957.03
2023-03-20T02:10:26.698Z,957.04
2023-03-20T02:10:37.470Z,957.03
2023-03-20T02:10:48.510Z,957.03
2023-03-20T02:10:59.478Z,957.04
2023-03-20T02:11:10.249Z,957.04
2023-03-20T02:11:21.298Z,957.03
2023-03-20T02:11:32.263Z,957.04
2023-03-20T02:11:43.040Z,957.04
2023-03-20T02:11:54.091Z,957.04
2023-03-20T02:12:05.076Z,957.03
2023-03-20T02:12:15.840Z,957.03
2023-03-20T02:12:26.888Z,957.04
2023-03-20T02:12:37.863Z,957.03
2023-03-20T02:12:48.645Z,957.03
2023-03-20T02:12:59.688Z,957.04
2023-03-20T02:13:10.650Z,957.05
2023-03-20T02:13:21.417Z,957.06
2023-03-20T02:13:32.465Z,957.05
2023-03-20T02:13:43.435Z,957.06
2023-03-20T02:13:54.206Z,957.05
2023-03-20T02:14:05.250Z,957.04
2023-03-20T02:14:16.217Z,957.06
2023-03-20T02:14:26.991Z,957.04
2023-03-20T02:14:38.042Z,957.06
2023-03-20T02:14:49.005Z,957.06
2023-03-20T02:14:59.787Z,957.06
2023-03-20T02:15:10.833Z,957.07
2023-03-20T02:15:21.802Z,957.06
2023-03-20T02:15:32.734Z,957.05
2023-03-20T02:15:43.289Z,957.06
2023-03-20T02:15:54.273Z,957.07
2023-03-20T02:16:05.042Z,957.07
2023-03-20T02:16:16.108Z,957.07